If you wish to contribute or participate in the discussions about articles you are invited to join SKYbrary as a registered user

 Actions

Pinto Martins – Fortaleza International Airport

From SKYbrary Wiki

SBFZ
Airport
ICAO: SBFZ – IATA: FOR
Summary
Name Pinto Martins – Fortaleza International Airport
Region South America and Caribbean
Territory Brazil BR.gif
Location Fortaleza, Caera
Serving Fortaleza
Elevation 24.994 m
82 ft24.994 m
Coordinates 3° 46' 32.99" S, 38° 31' 55.99" W
Runways
Designator Length Width Surface ROPS
13/31 2545 m8,349.738 ft
45 m147.638 ft
ASP yes/yes


METAR
Observation SBFZ 130600Z 08011KT 9999 SCT023 BKN040 27/23 Q1009
Station Fortaleza / pinto Martins
Date/Time 13 December 2019 06:00:00
Wind direction 80°
Wind speed 11 kts
Lowest cloud amount scattered clouds
Temperature 27°C
Dew point 23°C
Humidity 78%
QNH 1009 hPa
Weather condition n/a

Pinto Martins – Fortaleza International Airport (IATA: FOR, ICAO: SBFZ) is the airport serving Fortaleza, Brazil.

Climatology

Tropical savanna climate (Köppen climate classification Aw)

Maps

Terrain

Loading map...

Airport Layout

Loading map...


Accidents & Serious Incidents at or in vicinity of SBFZ

None on SKYbrary